Time;durP1;ratioP1;P1;durP2;ratioP2;P2;SDS_P1;SDS_P2;PMS_P1;PMS_P2;Temp;Humidity;BMP_temperature;BMP_pressure;BME280_temperature;BME280_humidity;BME280_pressure;Samples;Min_cycle;Max_cycle;Signal;HPM_P1;HPM_P2
2022/11/20 00:01:20;;;;;;;10.30;9.30;;;;;;;-0.38;79.36;100167.33;1743064;82;20932;-69
2022/11/20 00:03:46;;;;;;;11.13;9.03;;;;;;;-0.38;79.45;100159.40;1732189;80;21070;-72
2022/11/20 00:06:16;;;;;;;11.70;9.50;;;;;;;-0.40;79.12;100150.83;1736097;81;21218;-73
2022/11/20 00:08:43;;;;;;;16.00;10.37;;;;;;;-0.45;79.04;100169.83;1719303;82;20998;-72
2022/11/20 00:11:22;;;;;;;14.03;11.23;;;;;;;-0.46;79.26;100179.23;1738542;82;21058;-72
2022/11/20 00:13:51;;;;;;;12.73;9.47;;;;;;;-0.48;79.49;100180.71;1734373;80;21020;-73
2022/11/20 00:16:21;;;;;;;11.87;10.67;;;;;;;-0.47;80.12;100181.55;1725447;81;21090;-72
2022/11/20 00:18:49;;;;;;;11.77;9.87;;;;;;;-0.51;80.42;100186.83;1753177;81;20882;-73
2022/11/20 00:21:24;;;;;;;12.90;10.37;;;;;;;-0.48;80.32;100193.92;1753241;81;20967;-74
2022/11/20 00:23:51;;;;;;;16.27;12.57;;;;;;;-0.40;80.12;100197.07;1737042;81;21010;-73
2022/11/20 00:26:19;;;;;;;14.80;10.67;;;;;;;-0.33;79.93;100213.06;1738667;81;21082;-74
2022/11/20 00:28:53;;;;;;;11.70;9.90;;;;;;;-0.28;79.59;100200.17;1753616;80;21044;-73
2022/11/20 00:31:19;;;;;;;;;;;;;;;-0.31;78.78;100196.06;1756299;81;21034;-74
2022/11/20 00:33:47;;;;;;;17.33;14.00;;;;;;;-0.41;79.08;100192.77;1754414;81;20160;-78
2022/11/20 00:36:17;;;;;;;19.70;14.27;;;;;;;-0.47;79.39;100196.90;1742914;81;21082;-79
2022/11/20 00:38:44;;;;;;;17.63;11.67;;;;;;;-0.51;79.71;100200.87;1745371;80;21542;-77
2022/11/20 00:41:13;;;;;;;24.37;16.03;;;;;;;-0.48;79.93;100199.73;1727152;83;21046;-73
2022/11/20 00:43:40;;;;;;;18.60;14.67;;;;;;;-0.53;80.01;100208.12;1753064;80;21097;-63
2022/11/20 00:46:13;;;;;;;18.90;14.70;;;;;;;-0.56;80.46;100212.92;1758773;80;21011;-71
2022/11/20 00:48:41;;;;;;;16.03;13.03;;;;;;;-0.61;80.62;100218.70;1752638;81;21235;-76
2022/11/20 00:51:08;;;;;;;20.60;14.47;;;;;;;-0.67;81.02;100223.31;1752925;81;21094;-74
2022/11/20 00:53:36;;;;;;;18.53;15.27;;;;;;;-0.76;81.44;100222.15;1747896;81;21609;-67
2022/11/20 00:56:06;;;;;;;19.67;13.93;;;;;;;-0.82;81.99;100219.70;1729424;83;21261;-68
2022/11/20 00:58:36;;;;;;;19.43;12.47;;;;;;;-0.78;82.51;100213.58;1744723;81;21076;-67
2022/11/20 01:01:06;;;;;;;21.60;14.93;;;;;;;-0.75;82.71;100214.56;1753788;80;21067;-66
2022/11/20 01:03:37;;;;;;;19.67;15.20;;;;;;;-0.80;83.05;100218.19;1726277;81;21326;-66
2022/11/20 01:06:07;;;;;;;23.13;15.07;;;;;;;-0.81;83.53;100216.53;1752522;81;21060;-82
2022/11/20 01:08:35;;;;;;;15.80;13.40;;;;;;;-0.79;83.68;100214.08;1781787;80;21159;-71
2022/11/20 01:11:06;;;;;;;15.93;13.27;;;;;;;-0.77;83.80;100210.79;1774447;80;21085;-68
2022/11/20 01:13:37;;;;;;;17.93;14.63;;;;;;;-0.82;84.16;100196.42;1743772;80;21554;-68
2022/11/20 01:16:09;;;;;;;22.10;15.27;;;;;;;-0.94;84.45;100194.09;1772526;80;21007;-68
2022/11/20 01:18:37;;;;;;;17.70;14.30;;;;;;;-0.97;84.80;100192.28;1729208;82;21048;-68
2022/11/20 01:21:06;;;;;;;18.87;15.27;;;;;;;-0.93;85.20;100195.75;1730100;82;21194;-67
2022/11/20 01:23:36;;;;;;;18.57;12.80;;;;;;;-0.87;85.40;100210.12;1730599;82;21039;-68
2022/11/20 01:26:07;;;;;;;19.60;14.97;;;;;;;-0.86;85.61;100213.06;1730033;82;21091;-67
2022/11/20 01:28:36;;;;;;;18.87;14.85;;;;;;;-0.92;85.63;100205.82;1733911;81;21540;-66
2022/11/20 01:31:15;;;;;;;16.77;13.50;;;;;;;-0.99;85.79;100205.63;1763624;81;21086;-68
2022/11/20 01:33:43;;;;;;;19.60;16.20;;;;;;;-1.02;86.03;100199.38;1763820;80;21245;-67
2022/11/20 01:36:12;;;;;;;20.70;14.27;;;;;;;-1.00;86.39;100204.47;1758611;81;21021;-66
2022/11/20 01:38:39;;;;;;;20.53;14.40;;;;;;;-0.96;86.63;100200.55;1758853;81;20978;-67
2022/11/20 01:41:06;;;;;;;23.77;17.30;;;;;;;-0.99;86.71;100204.81;1758322;81;22275;-67
2022/11/20 01:43:33;;;;;;;23.97;17.37;;;;;;;-1.11;86.58;100204.31;1756875;80;21018;-67
2022/11/20 01:46:03;;;;;;;22.60;15.87;;;;;;;-1.16;86.81;100203.14;1781084;80;21131;-67
2022/11/20 01:48:41;;;;;;;26.63;18.20;;;;;;;-1.16;87.17;100200.50;1775724;80;21071;-67
2022/11/20 01:51:19;;;;;;;25.20;18.60;;;;;;;-1.19;87.42;100193.72;1710386;82;21014;-66
2022/11/20 01:53:45;;;;;;;25.03;18.97;;;;;;;-1.21;87.70;100202.80;1731753;82;21066;-67
2022/11/20 01:56:12;;;;;;;23.63;16.60;;;;;;;-1.23;88.01;100210.86;1731961;82;21046;-66
2022/11/20 01:58:46;;;;;;;20.63;16.00;;;;;;;-1.21;88.34;100210.22;1731982;82;21140;-66
2022/11/20 02:01:13;;;;;;;23.50;18.07;;;;;;;-1.21;88.51;100211.55;1732107;82;21086;-68
2022/11/20 02:03:40;;;;;;;24.70;17.83;;;;;;;-1.16;88.80;100225.57;1762451;80;21074;-67
2022/11/20 02:06:29;;;;;;;21.73;15.57;;;;;;;-1.11;88.97;100221.95;1730107;81;21044;-68
2022/11/20 02:08:55;;;;;;;23.90;18.03;;;;;;;-1.07;88.97;100219.32;1730322;82;21051;-68
2022/11/20 02:11:22;;;;;;;19.77;15.37;;;;;;;-1.01;89.18;100217.36;1737227;81;22434;-69
2022/11/20 02:13:48;;;;;;;22.00;15.53;;;;;;;-0.92;89.29;100227.77;1779618;79;21018;-68
2022/11/20 02:16:23;;;;;;;25.20;18.53;;;;;;;-0.90;89.06;100229.73;1742489;81;21027;-68
2022/11/20 02:18:50;;;;;;;24.23;16.83;;;;;;;-0.90;88.95;100236.33;1774825;80;20949;-69
2022/11/20 02:21:28;;;;;;;30.47;21.33;;;;;;;-0.79;89.04;100235.69;1744186;81;21066;-69
2022/11/20 02:24:11;;;;;;;30.03;19.57;;;;;;;-0.79;88.25;100227.28;1735831;82;21027;-69
2022/11/20 02:26:44;;;;;;;;;;;;;;;-0.85;87.48;100220.00;1761992;80;21007;-68
2022/11/20 02:29:10;;;;;;;25.10;17.35;;;;;;;-0.92;87.24;100225.62;1739651;81;20232;-68
2022/11/20 02:31:41;;;;;;;29.23;18.80;;;;;;;-0.96;87.25;100236.98;1750532;80;21044;-67
2022/11/20 02:34:08;;;;;;;23.97;17.50;;;;;;;-1.00;86.91;100241.42;1750371;81;21019;-68
2022/11/20 02:36:35;;;;;;;25.30;17.60;;;;;;;-1.05;86.80;100243.23;1755153;80;21056;-67
2022/11/20 02:39:03;;;;;;;21.73;16.17;;;;;;;-1.03;87.17;100241.27;1786553;80;21012;-68
2022/11/20 02:41:34;;;;;;;26.40;18.97;;;;;;;-0.94;87.02;100254.81;1742856;80;21086;-68
2022/11/20 02:44:01;;;;;;;21.50;17.37;;;;;;;-0.94;86.78;100259.27;1752139;80;21027;-68
2022/11/20 02:46:27;;;;;;;19.10;14.83;;;;;;;-0.89;86.79;100254.33;1760410;80;21544;-68
2022/11/20 02:48:55;;;;;;;23.63;16.80;;;;;;;-0.85;86.51;100238.98;1771142;80;21842;-69
2022/11/20 02:51:22;;;;;;;21.20;16.83;;;;;;;-0.84;86.23;100241.95;1752520;80;21513;-70
2022/11/20 02:53:49;;;;;;;22.57;16.07;;;;;;;-0.86;86.13;100237.34;1750395;80;20896;-69
2022/11/20 02:56:16;;;;;;;20.30;16.97;;;;;;;-0.86;86.02;100232.06;1755478;80;21047;-70
2022/11/20 02:58:43;;;;;;;25.27;17.90;;;;;;;-0.87;86.06;100238.33;1750449;81;21094;-70
2022/11/20 03:01:09;;;;;;;23.70;18.37;;;;;;;-0.86;86.26;100234.70;1757623;81;21090;-70
2022/11/20 03:03:37;;;;;;;24.67;17.67;;;;;;;-0.87;86.07;100224.64;1756242;80;21028;-71
2022/11/20 03:06:05;;;;;;;22.93;15.97;;;;;;;-0.85;86.04;100235.84;1755615;80;20976;-70
2022/11/20 03:08:32;;;;;;;26.23;18.37;;;;;;;-0.87;86.09;100238.33;1749944;81;21555;-70
2022/11/20 03:11:05;;;;;;;24.43;19.13;;;;;;;-0.89;86.41;100238.48;1753439;80;21523;-70
2022/11/20 03:13:33;;;;;;;28.27;20.40;;;;;;;-0.85;86.68;100246.89;1716996;81;21203;-70
2022/11/20 03:16:12;;;;;;;31.93;22.63;;;;;;;-0.83;86.68;100249.72;1757508;81;21504;-70
2022/11/20 03:18:39;;;;;;;28.27;19.63;;;;;;;-0.77;86.71;100251.72;1757640;81;21466;-69
2022/11/20 03:21:06;;;;;;;23.90;17.60;;;;;;;-0.75;86.69;100251.05;1757872;81;21010;-70
2022/11/20 03:23:37;;;;;;;29.20;19.57;;;;;;;-0.73;86.50;100251.72;1757812;81;21027;-70
2022/11/20 03:26:18;;;;;;;27.30;19.07;;;;;;;-0.73;86.33;100252.21;1733026;81;21942;-67
2022/11/20 03:28:51;;;;;;;25.00;17.83;;;;;;;-0.75;86.33;100254.17;1756552;80;20983;-67
2022/11/20 03:31:20;;;;;;;27.87;20.45;;;;;;;-0.81;86.39;100279.91;1758747;80;21042;-67
2022/11/20 03:33:49;;;;;;;25.73;20.43;;;;;;;-0.95;86.55;100286.64;1777267;80;20934;-67
2022/11/20 03:36:18;;;;;;;28.63;20.17;;;;;;;-1.02;86.84;100279.05;1785233;80;21056;-70
2022/11/20 03:38:47;;;;;;;28.07;20.70;;;;;;;-1.10;87.08;100286.92;1785054;80;21249;-70
2022/11/20 03:41:20;;;;;;;26.93;20.97;;;;;;;-1.16;87.49;100274.39;1784904;80;20980;-70
2022/11/20 03:43:54;;;;;;;32.53;23.40;;;;;;;-1.09;87.88;100274.06;1758497;80;20940;-68
2022/11/20 03:46:21;;;;;;;26.13;20.10;;;;;;;-1.02;88.10;100279.05;1757832;80;22195;-69
2022/11/20 03:48:49;;;;;;;55.63;36.53;;;;;;;-0.95;88.20;100287.48;1758714;81;21002;-69
2022/11/20 03:51:21;;;;;;;27.83;21.37;;;;;;;-0.87;88.29;100275.30;1763431;80;21986;-67
2022/11/20 03:53:48;;;;;;;27.47;18.77;;;;;;;-0.82;88.05;100275.64;1756050;80;22250;-67
2022/11/20 03:56:16;;;;;;;24.50;18.30;;;;;;;-0.88;87.91;100275.78;1754153;81;21568;-67
2022/11/20 03:58:43;;;;;;;25.03;18.63;;;;;;;-0.95;87.93;100271.63;1755935;81;21138;-68
2022/11/20 04:01:17;;;;;;;26.00;19.73;;;;;;;-1.01;88.00;100264.88;1757138;81;21016;-67
2022/11/20 04:03:45;;;;;;;28.03;20.43;;;;;;;-1.09;88.18;100261.70;1775661;80;21043;-68
2022/11/20 04:06:17;;;;;;;33.27;23.67;;;;;;;-1.16;88.28;100263.84;1775046;80;21082;-67
2022/11/20 04:08:44;;;;;;;33.87;23.23;;;;;;;-1.23;88.56;100260.17;1758342;81;21019;-67
2022/11/20 04:11:19;;;;;;;30.57;22.20;;;;;;;-1.29;88.84;100256.35;1758353;81;20996;-67
2022/11/20 04:13:48;;;;;;;32.77;24.50;;;;;;;-1.29;89.22;100266.11;1752377;80;21020;-67
2022/11/20 04:16:15;;;;;;;34.23;24.00;;;;;;;-1.32;89.51;100268.07;1759361;80;21832;-66
2022/11/20 04:18:43;;;;;;;40.77;27.93;;;;;;;-1.34;89.70;100260.80;1768109;80;20991;-68
2022/11/20 04:21:10;;;;;;;38.63;24.17;;;;;;;-1.33;89.93;100266.89;1782475;80;20988;-68
2022/11/20 04:23:37;;;;;;;41.43;26.47;;;;;;;-1.25;90.28;100264.31;1784844;80;21047;-68
2022/11/20 04:26:07;;;;;;;43.97;27.43;;;;;;;-1.19;90.26;100270.73;1760328;80;21038;-68
2022/11/20 04:28:35;;;;;;;41.77;29.10;;;;;;;-1.12;90.18;100265.99;1728207;81;21154;-67
2022/11/20 04:31:09;;;;;;;51.57;34.40;;;;;;;-1.10;89.80;100265.32;1752874;81;21063;-66
2022/11/20 04:33:36;;;;;;;53.15;34.13;;;;;;;-1.11;89.64;100264.19;1753086;81;21048;-67
2022/11/20 04:36:19;;;;;;;54.60;36.13;;;;;;;-1.11;89.54;100261.05;1755939;80;21039;-66
2022/11/20 04:38:45;;;;;;;57.63;39.23;;;;;;;-1.13;89.41;100268.78;1754779;81;21019;-67
2022/11/20 04:41:18;;;;;;;68.13;43.30;;;;;;;-1.15;89.35;100258.90;1753113;80;21362;-67
2022/11/20 04:43:52;;;;;;;58.63;38.60;;;;;;;-1.17;89.31;100251.13;1753183;81;21528;-68
2022/11/20 04:46:17;;;;;;;74.90;44.87;;;;;;;-1.21;89.23;100251.13;1750581;81;21064;-65
2022/11/20 04:48:44;;;;;;;63.73;39.27;;;;;;;-1.23;89.27;100245.66;1724311;81;21521;-67
2022/11/20 04:51:10;;;;;;;72.83;43.33;;;;;;;-1.23;89.28;100237.73;1720369;80;21000;-67
2022/11/20 04:53:37;;;;;;;62.07;41.60;;;;;;;-1.28;89.14;100234.27;1785760;80;21222;-66
2022/11/20 04:56:06;;;;;;;64.97;39.77;;;;;;;-1.33;89.07;100235.23;1767771;80;21054;-67
2022/11/20 04:58:34;;;;;;;66.97;41.70;;;;;;;-1.40;89.09;100232.43;1754246;80;21007;-65
2022/11/20 05:01:07;;;;;;;62.50;39.63;;;;;;;-1.44;89.26;100232.91;1754546;81;21500;-65
2022/11/20 05:03:35;;;;;;;73.80;45.83;;;;;;;-1.44;89.56;100222.36;1726070;81;21532;-67
2022/11/20 05:06:05;;;;;;;72.17;40.73;;;;;;;-1.44;89.55;100231.59;1754418;81;21139;-67
2022/11/20 05:08:32;;;;;;;58.57;37.87;;;;;;;-1.46;89.62;100219.87;1758780;80;21078;-66
2022/11/20 05:11:10;;;;;;;56.07;35.73;;;;;;;-1.50;89.52;100216.40;1766355;80;21007;-67
2022/11/20 05:13:37;;;;;;;65.00;40.30;;;;;;;-1.55;89.56;100212.92;1741134;80;20983;-67
2022/11/20 05:16:09;;;;;;;63.47;38.87;;;;;;;-1.58;89.72;100207.14;1738080;80;21069;-67
2022/11/20 05:18:36;;;;;;;70.27;43.90;;;;;;;-1.61;89.78;100204.31;1738444;80;22528;-68
2022/11/20 05:21:04;;;;;;;60.80;37.20;;;;;;;-1.62;89.94;100197.88;1754831;81;21014;-66
2022/11/20 05:23:31;;;;;;;73.27;47.70;;;;;;;-1.64;89.99;100203.33;1754913;81;21535;-68
2022/11/20 05:25:59;;;;;;;59.30;37.77;;;;;;;-1.63;90.16;100216.82;1723433;81;21485;-68
2022/11/20 05:28:26;;;;;;;73.77;45.90;;;;;;;-1.58;90.41;100222.97;1756045;80;21062;-67
2022/11/20 05:30:54;;;;;;;58.97;36.57;;;;;;;-1.60;90.19;100219.66;1759029;80;22267;-68
2022/11/20 05:33:21;;;;;;;68.07;42.87;;;;;;;-1.62;90.26;100217.66;1765357;80;21034;-67
2022/11/20 05:35:48;;;;;;;57.77;37.57;;;;;;;-1.66;90.33;100200.01;1712178;82;21651;-67
2022/11/20 05:38:16;;;;;;;69.77;42.60;;;;;;;-1.69;90.38;100186.33;1733579;80;21078;-67
2022/11/20 05:40:43;;;;;;;56.77;40.97;;;;;;;-1.71;90.44;100177.73;1756183;80;21062;-67
2022/11/20 05:43:09;;;;;;;53.50;35.10;;;;;;;-1.72;90.60;100178.22;1755786;81;21128;-67
2022/11/20 05:45:36;;;;;;;49.33;33.17;;;;;;;-1.69;90.83;100174.46;1756589;81;21004;-68
2022/11/20 05:48:03;;;;;;;52.23;36.33;;;;;;;-1.66;90.87;100179.41;1756513;80;21098;-67
2022/11/20 05:50:30;;;;;;;54.17;36.03;;;;;;;-1.64;90.92;100176.95;1730324;81;21015;-68
2022/11/20 05:52:59;;;;;;;49.17;34.67;;;;;;;-1.61;90.70;100183.71;1760791;80;21083;-67
2022/11/20 05:55:27;;;;;;;58.80;34.90;;;;;;;-1.57;90.62;100191.62;1754570;81;21125;-67
2022/11/20 05:57:54;;;;;;;54.93;32.97;;;;;;;-1.62;90.39;100187.33;1731553;80;21574;-69
2022/11/20 06:00:22;;;;;;;52.00;33.53;;;;;;;-1.63;90.43;100199.68;1727448;83;21038;-67
2022/11/20 06:02:49;;;;;;;56.80;35.87;;;;;;;-1.72;90.31;100199.31;1741973;80;21018;-69
2022/11/20 06:05:15;;;;;;;51.17;32.17;;;;;;;-1.77;90.53;100197.65;1738112;80;21568;-68
2022/11/20 06:07:43;;;;;;;47.30;31.00;;;;;;;-1.80;90.69;100196.17;1757703;81;21139;-69
2022/11/20 06:10:10;;;;;;;47.30;33.80;;;;;;;-1.83;90.81;100198.30;1751503;81;21023;-69
2022/11/20 06:12:38;;;;;;;50.83;35.30;;;;;;;-1.87;91.00;100200.92;1712471;83;21061;-69
2022/11/20 06:15:08;;;;;;;62.83;38.20;;;;;;;-1.90;91.19;100190.19;1686141;83;21018;-69
2022/11/20 06:17:34;;;;;;;62.50;38.30;;;;;;;-1.87;91.44;100198.29;1712051;83;21558;-69
2022/11/20 06:20:01;;;;;;;54.00;36.43;;;;;;;-1.85;91.58;100202.89;1736263;80;22880;-68
2022/11/20 06:22:27;;;;;;;49.17;34.27;;;;;;;-1.79;91.70;100202.27;1735253;81;21554;-67
2022/11/20 06:24:54;;;;;;;49.37;32.90;;;;;;;-1.80;91.68;100190.89;1741297;80;21705;-67
2022/11/20 06:27:20;;;;;;;45.97;29.90;;;;;;;-1.82;91.69;100196.80;1756813;80;21460;-67
2022/11/20 06:29:47;;;;;;;43.57;26.73;;;;;;;-1.86;91.72;100196.79;1754841;81;21334;-68
2022/11/20 06:32:14;;;;;;;36.90;26.70;;;;;;;-1.87;91.79;100196.45;1751937;81;21132;-68
2022/11/20 06:34:40;;;;;;;45.73;30.93;;;;;;;-1.90;91.81;100199.90;1781735;80;20968;-69
2022/11/20 06:37:08;;;;;;;35.03;26.23;;;;;;;-1.88;92.02;100201.90;1763161;80;20960;-69
2022/11/20 06:39:34;;;;;;;39.57;26.23;;;;;;;-1.85;92.15;100207.67;1755617;80;21102;-68
2022/11/20 06:42:01;;;;;;;39.87;25.00;;;;;;;-1.84;92.16;100203.23;1769487;80;21047;-68
2022/11/20 06:44:28;;;;;;;36.57;26.20;;;;;;;-1.84;92.12;100204.06;1700044;83;21082;-69
2022/11/20 06:46:54;;;;;;;38.73;27.23;;;;;;;-1.86;92.22;100207.83;1739727;81;21015;-69
2022/11/20 06:49:21;;;;;;;43.50;28.50;;;;;;;-1.90;92.28;100195.95;1754096;80;20999;-69
2022/11/20 06:51:48;;;;;;;42.27;27.10;;;;;;;-1.85;92.46;100187.08;1732206;81;21184;-68
2022/11/20 06:54:14;;;;;;;44.37;30.17;;;;;;;-1.81;92.45;100177.38;1724812;83;21056;-69
2022/11/20 06:56:41;;;;;;;40.50;30.30;;;;;;;-1.79;92.36;100176.73;1746796;81;21126;-67
2022/11/20 06:59:07;;;;;;;47.37;32.17;;;;;;;-1.83;92.18;100177.21;1749728;80;21011;-69
2022/11/20 07:01:34;;;;;;;42.60;28.43;;;;;;;-1.78;92.36;100174.93;1772935;80;21022;-68
2022/11/20 07:04:02;;;;;;;33.00;23.57;;;;;;;-1.70;92.36;100168.36;1752683;80;21109;-70
2022/11/20 07:06:30;;;;;;;31.90;23.57;;;;;;;-1.64;92.05;100178.28;1747686;80;21552;-70
2022/11/20 07:08:57;;;;;;;30.63;21.43;;;;;;;-1.57;91.89;100185.03;1748785;81;22168;-70
2022/11/20 07:11:25;;;;;;;27.93;20.07;;;;;;;-1.49;91.62;100177.17;1753934;80;21018;-70
2022/11/20 07:13:51;;;;;;;34.37;24.53;;;;;;;-1.46;91.27;100181.62;1754076;80;21531;-69
2022/11/20 07:16:18;;;;;;;35.97;25.40;;;;;;;-1.46;90.76;100182.11;1754820;80;21048;-72
2022/11/20 07:18:45;;;;;;;36.23;24.00;;;;;;;-1.34;91.11;100174.22;1753524;80;21043;-70
2022/11/20 07:21:14;;;;;;;33.03;23.00;;;;;;;-1.18;90.81;100167.66;1754196;80;21023;-72
2022/11/20 07:23:40;;;;;;;30.30;22.07;;;;;;;-1.17;89.85;100159.26;1752862;81;20996;-73
2022/11/20 07:26:09;;;;;;;34.50;24.40;;;;;;;-1.17;89.41;100160.09;1754401;81;20893;-72
2022/11/20 07:28:36;;;;;;;30.80;20.73;;;;;;;-1.13;88.72;100158.77;1754351;80;21496;-70
2022/11/20 07:31:06;;;;;;;24.80;18.97;;;;;;;-1.13;87.98;100160.09;1786050;80;21000;-69
2022/11/20 07:33:33;;;;;;;23.40;17.67;;;;;;;-1.11;87.68;100158.61;1760879;80;21146;-69
2022/11/20 07:36:00;;;;;;;32.03;23.27;;;;;;;-1.08;87.44;100164.38;1753985;80;21043;-69
2022/11/20 07:38:26;;;;;;;26.37;21.10;;;;;;;-1.03;87.11;100166.04;1752265;81;20929;-69
2022/11/20 07:40:57;;;;;;;34.13;25.60;;;;;;;-0.98;86.74;100165.55;1752812;81;20984;-69
2022/11/20 07:43:25;;;;;;;32.90;23.57;;;;;;;-0.95;86.61;100164.72;1752723;81;21067;-70
2022/11/20 07:45:51;;;;;;;35.33;25.63;;;;;;;-0.91;86.23;100175.27;1752725;81;21253;-70
2022/11/20 07:48:19;;;;;;;36.13;25.97;;;;;;;-0.91;85.91;100170.00;1752676;81;21192;-71
2022/11/20 07:50:46;;;;;;;39.17;27.67;;;;;;;-0.89;85.79;100176.44;1769752;80;21060;-70
2022/11/20 07:53:13;;;;;;;29.70;22.03;;;;;;;-0.83;85.89;100168.36;1752869;80;21090;-70
2022/11/20 07:55:41;;;;;;;32.50;22.70;;;;;;;-0.80;85.58;100160.93;1754762;81;21587;-71
2022/11/20 07:58:07;;;;;;;29.30;22.13;;;;;;;-0.83;85.14;100159.12;1763151;80;21217;-72
2022/11/20 08:00:34;;;;;;;32.03;22.20;;;;;;;-0.91;85.13;100170.48;1754740;81;21047;-71
2022/11/20 08:03:05;;;;;;;28.43;22.90;;;;;;;-0.99;85.02;100177.09;1754464;80;21128;-69
2022/11/20 08:05:32;;;;;;;36.53;23.13;;;;;;;-1.02;85.25;100175.62;1753992;80;21031;-70
2022/11/20 08:07:59;;;;;;;32.03;20.60;;;;;;;-1.09;85.25;100177.24;1749605;81;21036;-69
2022/11/20 08:10:26;;;;;;;27.43;20.97;;;;;;;-1.13;85.50;100169.32;1718730;81;21232;-69
2022/11/20 08:15:40;;;;;;;28.33;22.03;;;;;;;-1.16;85.96;100145.91;1737165;82;21019;-68
2022/11/20 08:18:11;;;;;;;29.40;19.77;;;;;;;-1.12;86.22;100148.55;1739093;80;20979;-69
2022/11/20 08:20:39;;;;;;;31.82;22.80;;;;;;;-1.07;86.31;100147.56;1724701;83;21005;-70
2022/11/20 08:23:07;;;;;;;31.80;23.30;;;;;;;-1.02;86.34;100143.94;1748163;81;21147;-70
2022/11/20 08:25:35;;;;;;;30.90;23.97;;;;;;;-0.97;86.49;100136.84;1753336;81;20959;-69
2022/11/20 08:28:07;;;;;;;31.63;22.13;;;;;;;-0.91;86.22;100138.31;1749588;80;21019;-73
2022/11/20 08:30:34;;;;;;;27.10;20.43;;;;;;;-0.90;86.02;100137.33;1764722;81;20955;-72
2022/11/20 08:33:03;;;;;;;26.80;21.00;;;;;;;-0.80;86.13;100129.73;1758593;81;21051;-72
2022/11/20 08:35:35;;;;;;;30.13;20.17;;;;;;;-0.75;85.99;100138.81;1738463;80;21258;-75
2022/11/20 08:38:04;;;;;;;31.67;21.37;;;;;;;-0.70;85.90;100137.82;1721802;81;21058;-71
2022/11/20 08:40:31;;;;;;;25.70;19.53;;;;;;;-0.68;85.81;100129.74;1750944;80;21028;-69
2022/11/20 08:43:00;;;;;;;25.27;20.57;;;;;;;-0.70;85.91;100133.86;1743345;80;21079;-71
2022/11/20 08:45:27;;;;;;;31.80;22.60;;;;;;;-0.68;86.15;100136.34;1795350;79;21035;-72
2022/11/20 08:47:56;;;;;;;31.20;22.80;;;;;;;-0.70;86.28;100131.22;1795059;79;21563;-71
2022/11/20 08:50:23;;;;;;;28.87;22.03;;;;;;;-0.72;86.59;100129.75;1796048;79;21563;-70
2022/11/20 08:52:50;;;;;;;30.77;20.97;;;;;;;-0.68;86.89;100135.84;1779589;79;21040;-67
2022/11/20 08:55:16;;;;;;;25.13;18.17;;;;;;;-0.62;87.05;100134.33;1761301;81;20983;-68
2022/11/20 08:57:44;;;;;;;22.63;16.97;;;;;;;-0.60;87.01;100134.52;1760253;79;21550;-69
2022/11/20 09:00:13;;;;;;;25.57;20.03;;;;;;;-0.58;86.81;100138.31;1730239;81;22136;-68
2022/11/20 09:02:41;;;;;;;22.57;18.50;;;;;;;-0.62;86.70;100143.58;1764789;79;21023;-70
2022/11/20 09:05:08;;;;;;;24.90;20.43;;;;;;;-0.57;87.10;100139.45;1755666;79;21219;-68
2022/11/20 09:07:38;;;;;;;27.30;18.17;;;;;;;-0.47;87.35;100140.59;1733662;81;21525;-70
2022/11/20 09:10:07;;;;;;;23.27;18.10;;;;;;;-0.38;87.45;100134.30;1756621;79;21038;-69
2022/11/20 09:12:35;;;;;;;27.87;19.53;;;;;;;-0.37;87.33;100120.59;1689849;82;21288;-69
2022/11/20 09:15:02;;;;;;;24.47;19.70;;;;;;;-0.33;87.32;100120.58;1786406;79;21086;-69
2022/11/20 09:17:30;;;;;;;26.90;20.53;;;;;;;-0.32;87.24;100097.13;1768194;79;21014;-69
2022/11/20 09:19:57;;;;;;;28.93;21.37;;;;;;;-0.32;87.24;100087.38;1744909;81;21082;-68
2022/11/20 09:22:24;;;;;;;35.97;27.00;;;;;;;-0.34;87.09;100080.63;1770147;79;21074;-69
2022/11/20 09:24:51;;;;;;;51.03;38.00;;;;;;;-0.37;87.27;100079.63;1777354;79;21286;-70
2022/11/20 09:27:22;;;;;;;29.80;23.17;;;;;;;-0.40;87.17;100090.06;1764136;81;20991;-68
2022/11/20 09:29:50;;;;;;;25.10;19.90;;;;;;;-0.36;87.16;100102.43;1727005;81;21117;-69
2022/11/20 09:32:17;;;;;;;23.83;19.40;;;;;;;-0.37;87.09;100106.06;1753353;80;20967;-70
2022/11/20 09:34:44;;;;;;;33.03;28.63;;;;;;;-0.36;87.16;100096.65;1765303;80;21020;-69
2022/11/20 09:37:10;;;;;;;28.53;23.93;;;;;;;-0.36;87.06;100092.69;1809379;78;21282;-70
2022/11/20 09:39:38;;;;;;;37.20;30.20;;;;;;;-0.36;86.98;100087.40;1782619;78;21061;-70
2022/11/20 09:42:30;;;;;;;29.27;26.10;;;;;;;-0.32;87.26;100075.49;1812050;79;20892;-70
2022/11/20 09:45:17;;;;;;;26.40;23.67;;;;;;;-0.27;87.27;100063.09;1810449;78;21729;-69
2022/11/20 09:48:09;;;;;;;25.23;22.73;;;;;;;-0.12;87.63;100056.09;1809041;78;20968;-69
2022/11/20 09:50:49;;;;;;;24.77;22.10;;;;;;;-0.01;87.28;100045.97;1772865;79;22041;-69
2022/11/20 09:53:27;;;;;;;22.67;18.90;;;;;;;0.04;87.09;100049.91;1803633;78;21027;-69
2022/11/20 09:55:54;;;;;;;20.73;16.23;;;;;;;0.03;86.78;100053.05;1808609;78;21002;-69
2022/11/20 09:58:47;;;;;;;21.87;16.03;;;;;;;-0.06;86.65;100055.41;1810481;79;20964;-70
2022/11/20 10:01:23;;;;;;;21.57;17.63;;;;;;;-0.11;86.63;100051.14;1809197;78;21027;-70
2022/11/20 10:04:03;;;;;;;19.17;14.40;;;;;;;-0.07;87.09;100037.41;1808798;78;21504;-69
2022/11/20 10:06:36;;;;;;;21.57;18.03;;;;;;;0.06;87.21;100037.33;1791062;78;20944;-72
2022/11/20 10:09:30;;;;;;;22.40;18.60;;;;;;;0.10;86.93;100037.30;1780236;79;21046;-72
2022/11/20 10:12:14;;;;;;;22.27;15.73;;;;;;;0.11;86.70;100031.84;1782675;78;20992;-69
2022/11/20 10:15:16;;;;;;;17.17;14.70;;;;;;;0.13;86.72;100029.03;1812048;78;21011;-69
2022/11/20 10:18:04;;;;;;;18.13;14.93;;;;;;;0.18;86.62;100024.88;1811322;78;21130;-71
2022/11/20 10:20:52;;;;;;;20.93;14.90;;;;;;;0.14;86.56;100016.14;1800520;78;22400;-74
2022/11/20 10:23:55;;;;;;;17.03;14.23;;;;;;;0.14;86.39;100020.94;1801135;79;21503;-71
2022/11/20 10:26:39;;;;;;;19.20;14.38;;;;;;;0.14;86.12;100011.68;1813993;78;20944;-72
2022/11/20 10:29:15;;;;;;;23.85;19.40;;;;;;;0.20;85.63;100018.06;1764635;80;21112;-71
2022/11/20 10:31:51;;;;;;;19.80;15.50;;;;;;;0.21;85.29;100012.61;1803101;78;21123;-71
2022/11/20 10:34:28;;;;;;;18.73;16.00;;;;;;;0.28;85.49;100016.22;1799587;78;20941;-72
2022/11/20 10:37:18;;;;;;;17.60;15.05;;;;;;;0.28;85.06;100010.10;1809435;78;22186;-70
2022/11/20 10:40:00;;;;;;;18.33;14.43;;;;;;;0.23;84.92;100005.34;1793115;78;21133;-71
2022/11/20 10:42:47;;;;;;;16.77;13.70;;;;;;;0.22;85.06;100005.01;1814704;78;21610;-70
2022/11/20 10:45:27;;;;;;;15.47;13.17;;;;;;;0.11;84.86;100000.11;1822233;78;21312;-70
2022/11/20 10:48:14;;;;;;;23.87;16.47;;;;;;;0.03;85.19;99992.23;1805277;78;20940;-73
2022/11/20 10:50:46;;;;;;;14.43;12.93;;;;;;;0.02;85.77;99991.08;1802723;78;20905;-71
2022/11/20 10:53:29;;;;;;;17.60;14.77;;;;;;;0.02;86.15;99991.91;1812205;78;21011;-70
2022/11/20 10:56:06;;;;;;;21.63;14.67;;;;;;;-0.03;86.46;99993.75;1815291;77;21004;-72
2022/11/20 10:58:41;;;;;;;18.53;16.07;;;;;;;-0.04;87.09;99997.89;1816149;77;21461;-70
2022/11/20 11:01:21;;;;;;;20.77;16.43;;;;;;;-0.10;87.38;100004.72;1811942;78;21761;-70
2022/11/20 11:03:47;;;;;;;16.80;13.47;;;;;;;-0.13;88.01;99995.79;1810375;78;21004;-70
2022/11/20 11:06:26;;;;;;;17.73;15.20;;;;;;;-0.11;88.54;100000.42;1810997;78;20987;-75
2022/11/20 11:08:53;;;;;;;20.10;17.27;;;;;;;-0.06;88.56;99994.61;1805679;78;22198;-69
2022/11/20 11:11:26;;;;;;;19.03;14.73;;;;;;;-0.09;88.50;99981.22;1825112;78;21156;-69
2022/11/20 11:13:53;;;;;;;20.72;16.93;;;;;;;-0.03;88.86;99969.13;1829324;78;21023;-69
2022/11/20 11:16:25;;;;;;;19.10;16.60;;;;;;;-0.04;88.98;99970.95;1816630;78;22158;-70
2022/11/20 11:18:54;;;;;;;23.92;18.82;;;;;;;-0.02;89.29;99970.29;1805190;78;21494;-70
2022/11/20 11:21:25;;;;;;;24.00;19.97;;;;;;;-0.06;89.58;99982.72;1831632;77;21074;-70
2022/11/20 11:24:05;;;;;;;20.47;18.17;;;;;;;-0.11;89.81;99986.37;1813639;78;21098;-80
2022/11/20 11:26:31;;;;;;;22.13;18.73;;;;;;;-0.10;90.16;99981.42;1748881;80;21530;-80
2022/11/20 11:29:00;;;;;;;22.70;20.40;;;;;;;-0.15;90.35;99972.69;1802760;78;20912;-82